Stations météo

réclame
Mon MeteoGroup
Coventry/Coundon, Grande-Bretagne (99070): Température de l'air & dewpoint: 18.11.2020 03:00:00 - 24.11.2020 03:00:00 (GMT)Coventry/Coundon, Grande-Bretagne (99070): Température de l'air -20cm & Température de l'air -100cm: 18.11.2020 03:00:00 - 24.11.2020 03:00:00 (GMT)Coventry/Coundon, Grande-Bretagne (99070): Vitesse du vent & gusts: 18.11.2020 03:00:00 - 24.11.2020 03:00:00 (GMT)Coventry/Coundon, Grande-Bretagne (99070): Direction du vent: 18.11.2020 03:00:00 - 24.11.2020 03:00:00 (GMT)Coventry/Coundon, Grande-Bretagne (99070): Ensoleillement: 18.11.2020 03:00:00 - 24.11.2020 03:00:00 (GMT)Coventry/Coundon, Grande-Bretagne (99070): Quantités de précipitations: 18.11.2020 03:00:00 - 24.11.2020 03:00:00 (GMT)
Date & Time tt [°C] td [°C] tt -20cm [°C] tt -100cm [°C] ff [km/h] ff [knt] fx [km/h] fx [knt] dd sd [min] rr [mm]
24.11.2020 03:00:00 - - - - - - - - - - -
24.11.2020 02:00:00 10,1 7,9 - - 15 8 - - SSW 0 0,0
24.11.2020 01:00:00 10,1 8,1 - - 15 8 - - SSW 0 0,0
24.11.2020 00:00:00 9,9 8,1 - - 16 9 - - SSW - 0,0
23.11.2020 23:00:00 9,1 7,8 - - 13 7 - - SW 0 0,0
23.11.2020 22:00:00 7,4 6,8 - - 9 5 - - SSW 0 0,0
23.11.2020 21:00:00 7,1 6,6 - - 13 7 - - SSW 0 0,0
23.11.2020 20:00:00 6,7 6,0 - - 8 4 - - SSW 0 0,0
23.11.2020 19:00:00 7,0 6,0 - - 8 4 - - S 0 0,0
23.11.2020 18:00:00 7,7 6,4 - - 15 8 - - SSW 0 0,0
23.11.2020 17:00:00 7,5 6,0 - - 9 5 - - SSW 0 0,0
23.11.2020 16:00:00 8,1 5,8 - - 11 6 - - SSW 0 0,0
23.11.2020 15:00:00 9,0 5,8 - - 15 8 - - SSW 42 0,0
23.11.2020 14:00:00 8,9 6,0 - - 16 9 - - SSW 30 0,0
23.11.2020 13:00:00 8,8 6,4 - - 11 6 - - SSW 54 0,0
23.11.2020 12:00:00 7,3 7,0 - - 5 3 - - SSW 18 0,0
23.11.2020 11:00:00 4,6 4,5 - - 8 4 - - SW 18 0,0
23.11.2020 10:00:00 3,8 3,8 - - 4 2 - - SSW 60 0,0
23.11.2020 09:00:00 1,7 1,7 9,0 11,2 2 1 - - SSE 30 0,0
23.11.2020 08:00:00 -0,3 -0,3 - - 4 2 - - WSW 0 0,0
23.11.2020 07:00:00 -0,7 -0,9 - - 2 1 - - SSE 0 0,0
23.11.2020 06:00:00 0,8 0,8 - - 4 2 - - WSW 0 0,0
23.11.2020 05:00:00 0,2 0,1 - - 4 2 - - W 0 0,0
23.11.2020 04:00:00 0,8 0,8 - - 4 2 - - SW 0 0,0
23.11.2020 03:00:00 0,3 0,2 - - 4 2 - - SW 0 0,0
23.11.2020 02:00:00 0,4 0,1 - - 2 1 - - SW 0 0,0
23.11.2020 01:00:00 0,8 0,3 - - 2 1 - - W 0 0,0
23.11.2020 00:00:00 1,8 1,5 - - 4 2 - - W - 0,0
22.11.2020 23:00:00 2,5 1,9 - - 5 3 - - W 0 0,0
22.11.2020 22:00:00 2,7 1,9 - - 5 3 - - W 0 0,0
22.11.2020 21:00:00 2,6 1,5 - - 4 2 - - W 0 0,0
22.11.2020 20:00:00 3,4 2,5 - - 8 4 - - W 0 0,0
22.11.2020 19:00:00 3,8 2,9 - - 5 3 - - W 0 0,0
22.11.2020 18:00:00 3,6 2,5 - - 4 2 - - WNW 0 0,0
22.11.2020 17:00:00 5,0 2,6 - - 2 1 - - W 0 0,0
22.11.2020 16:00:00 7,6 3,9 - - 5 3 - - WSW 6 0,0
22.11.2020 15:00:00 8,8 4,0 - - 13 7 - - WSW 60 0,0
22.11.2020 14:00:00 9,4 4,6 - - 11 6 - - WSW 54 0,0
22.11.2020 13:00:00 9,3 4,9 - - 9 5 - - WSW 54 0,0
22.11.2020 12:00:00 8,6 4,9 - - 9 5 - - W 48 0,0
22.11.2020 11:00:00 6,9 5,0 - - 5 3 - - WSW 6 0,0
22.11.2020 10:00:00 6,8 5,8 - - 5 3 - - W 18 0,0
22.11.2020 09:00:00 4,6 4,5 10,0 11,2 4 2 - - SW 0 0,0
22.11.2020 08:00:00 4,0 3,9 - - 5 3 - - SW 0 0,0
22.11.2020 07:00:00 4,1 3,8 - - 4 2 - - SW 0 0,0
22.11.2020 06:00:00 4,0 3,6 - - 4 2 - - SSW 0 0,0
22.11.2020 05:00:00 5,2 4,7 - - 5 3 - - SSW 0 0,0
22.11.2020 04:00:00 5,9 5,0 - - 4 2 - - W 0 0,0
22.11.2020 03:00:00 6,6 5,8 - - 4 2 - - SSW 0 0,0
22.11.2020 02:00:00 7,8 6,4 - - 9 5 - - WSW 0 0,0
22.11.2020 01:00:00 8,2 6,6 - - 9 5 - - WSW 0 0,0
22.11.2020 00:00:00 9,0 7,2 - - 9 5 - - W - 0,0
21.11.2020 23:00:00 10,0 8,3 - - 11 6 - - W 0 0,2
21.11.2020 22:00:00 10,7 10,0 - - 9 5 - - W 0 0,2
21.11.2020 21:00:00 10,7 10,2 - - 13 7 - - WSW 0 0,2
21.11.2020 20:00:00 10,7 10,0 - - 15 8 - - SW 0 0,0
21.11.2020 19:00:00 10,9 9,7 - - 13 7 - - SW 0 0,0
21.11.2020 18:00:00 10,8 9,4 - - 15 8 - - SW 0 0,0
21.11.2020 17:00:00 10,7 9,3 - - 15 8 - - SW 0 0,0
21.11.2020 16:00:00 11,1 9,0 - - 15 8 - - SW 0 0,0
21.11.2020 15:00:00 11,5 8,9 - - 15 8 - - SW 0 0,0
21.11.2020 14:00:00 11,7 8,7 - - 13 7 - - SW 0 0,0
21.11.2020 13:00:00 11,4 8,9 - - 16 9 - - SW 12 0,0
21.11.2020 12:00:00 11,4 8,9 - - 16 9 - - SW 6 0,0
21.11.2020 11:00:00 10,9 8,5 - - 13 7 - - SSW 0 0,0
21.11.2020 10:00:00 10,4 8,2 - - 16 9 - - SW 6 0,0
21.11.2020 09:00:00 10,3 8,2 9,9 11,4 15 8 - - SW 18 0,0
21.11.2020 08:00:00 9,7 7,6 - - 11 6 - - SW 0 0,0
21.11.2020 07:00:00 9,8 7,9 - - 9 5 - - SW 0 0,0
21.11.2020 06:00:00 10,0 8,0 - - 13 7 - - WSW 0 0,0
21.11.2020 05:00:00 9,8 8,3 - - 13 7 - - SW 0 0,0
21.11.2020 04:00:00 9,9 8,3 - - 16 9 - - WSW 0 0,0
21.11.2020 03:00:00 9,8 8,8 - - 9 5 - - SW 0 0,0
21.11.2020 02:00:00 9,9 8,9 - - 13 7 - - SW 0 0,0
21.11.2020 01:00:00 9,9 8,9 - - 15 8 - - SW 0 0,0
21.11.2020 00:00:00 10,2 8,7 - - 15 8 - - SW - 0,0
20.11.2020 23:00:00 10,5 9,0 - - 18 10 - - SW 0 0,0
20.11.2020 22:00:00 10,4 9,7 - - 9 5 - - WSW 0 0,0
20.11.2020 21:00:00 10,3 9,6 - - 13 7 - - SW 0 0,0
20.11.2020 20:00:00 10,1 9,6 - - 11 6 - - SSW 0 0,0
20.11.2020 19:00:00 9,8 9,4 - - 11 6 - - SSW 0 0,0
20.11.2020 18:00:00 9,6 9,1 - - 15 8 - - SW 0 0,0
20.11.2020 17:00:00 9,1 8,7 - - 15 8 - - SSW 0 0,0
20.11.2020 16:00:00 9,1 8,5 - - 13 7 - - SSW 0 0,0
20.11.2020 15:00:00 8,8 8,3 - - 15 8 - - SSW 0 0,2
20.11.2020 14:00:00 8,5 8,1 - - 11 6 - - SSW 0 0,2
20.11.2020 13:00:00 8,0 7,4 - - 8 4 - - SSW 0 0,2
20.11.2020 12:00:00 7,0 6,0 - - 9 5 - - S 0 0,0
20.11.2020 11:00:00 6,6 5,5 - - 9 5 - - S 0 0,0
20.11.2020 10:00:00 5,6 4,3 - - 8 4 - - S 0 0,0
20.11.2020 09:00:00 4,7 3,4 9,7 11,5 8 4 - - S 0 0,0
20.11.2020 08:00:00 3,6 2,4 - - 5 3 - - S 0 0,0
20.11.2020 07:00:00 2,8 2,2 - - 5 3 - - SSW 0 0,0
20.11.2020 06:00:00 2,4 2,0 - - 8 4 - - S 0 0,0
20.11.2020 05:00:00 1,7 1,3 - - 4 2 - - S 0 0,0
20.11.2020 04:00:00 1,5 0,9 - - 2 1 - - SSW 0 0,0
20.11.2020 03:00:00 1,8 1,4 - - 4 2 - - SW 0 0,0
20.11.2020 02:00:00 2,0 1,5 - - 4 2 - - WSW 0 0,0
20.11.2020 01:00:00 1,6 1,0 - - 4 2 - - W 0 0,0
20.11.2020 00:00:00 2,1 1,1 - - 4 2 - - W - 0,0
19.11.2020 23:00:00 2,9 1,6 - - 4 2 - - WSW 0 0,0
19.11.2020 22:00:00 3,2 2,0 - - 4 2 - - W 0 0,0
19.11.2020 21:00:00 2,9 1,9 - - 4 2 - - W 0 0,0
19.11.2020 20:00:00 2,8 1,8 - - 5 3 - - W 0 0,0
19.11.2020 19:00:00 3,0 1,4 - - 4 2 - - W 0 0,0
19.11.2020 18:00:00 4,0 1,6 - - 4 2 - - WNW 0 0,0
19.11.2020 17:00:00 5,8 2,1 - - 8 4 - - WNW 0 0,0
19.11.2020 16:00:00 6,9 1,5 - - 13 7 - - NW 6 0,0
19.11.2020 15:00:00 7,3 1,7 - - 11 6 - - NW 12 0,0
19.11.2020 14:00:00 7,2 1,7 - - 11 6 - - NW 24 0,0
19.11.2020 13:00:00 8,5 3,5 - - 11 6 - - WNW 30 0,0
19.11.2020 12:00:00 7,7 4,3 - - 13 7 - - NNW 30 0,0
19.11.2020 11:00:00 7,3 5,0 - - 15 8 - - N 36 0,2
19.11.2020 10:00:00 6,4 4,7 - - 21 11 - - NNE 0 1,0
19.11.2020 09:00:00 8,0 6,1 10,7 11,5 16 9 - - W 0 0,4
19.11.2020 08:00:00 8,2 6,2 - - 15 8 - - WNW 0 0,2
19.11.2020 07:00:00 8,5 5,3 - - 16 9 - - W 0 0,0
19.11.2020 06:00:00 8,8 4,8 - - 21 11 - - W 0 0,0
19.11.2020 05:00:00 8,6 4,0 - - 21 11 - - W 0 0,0
19.11.2020 04:00:00 8,8 4,0 - - 24 13 46 25 W 0 0,0
19.11.2020 03:00:00 8,9 4,7 - - 21 11 - - W 0 0,0
19.11.2020 02:00:00 8,9 4,6 - - 22 12 50 27 WSW 0 0,0
19.11.2020 01:00:00 9,3 4,2 - - 24 13 46 25 WSW 0 0,0
19.11.2020 00:00:00 8,9 3,7 - - 22 12 - - WSW - 0,0
18.11.2020 23:00:00 8,1 3,4 - - 18 10 - - WSW 0 0,0
18.11.2020 22:00:00 7,5 3,2 - - 16 9 - - WSW 0 0,0
18.11.2020 21:00:00 7,7 3,2 - - 15 8 - - WSW 0 0,0
18.11.2020 20:00:00 7,5 3,1 - - 16 9 - - WSW 0 0,0
18.11.2020 19:00:00 7,8 3,2 - - 15 8 - - WSW 0 0,0
18.11.2020 18:00:00 8,9 3,8 - - 18 10 - - WSW 0 0,0
18.11.2020 17:00:00 10,1 5,7 - - 21 11 - - W 0 0,2
18.11.2020 16:00:00 11,7 9,3 - - 16 9 46 25 W 0 0,2
18.11.2020 15:00:00 13,5 12,8 - - 18 10 - - SW 0 0,0
18.11.2020 14:00:00 12,7 11,3 - - 16 9 - - SSW 0 0,0
18.11.2020 13:00:00 12,5 10,8 - - 16 9 - - S 0 0,0
18.11.2020 12:00:00 12,5 11,0 - - 16 9 - - S 0 0,6
18.11.2020 11:00:00 12,1 11,3 - - 16 9 - - S 0 1,0
18.11.2020 10:00:00 12,7 10,7 - - 16 9 - - S 0 0,0
18.11.2020 09:00:00 12,6 10,5 10,7 11,5 15 8 - - S 0 0,0
18.11.2020 08:00:00 12,1 9,9 - - 13 7 - - S 0 0,0
18.11.2020 07:00:00 12,0 9,7 - - 16 9 - - S 0 0,0
18.11.2020 06:00:00 11,8 9,5 - - 13 7 - - SSW 0 0,0
18.11.2020 05:00:00 11,7 9,0 - - 9 5 - - S 0 0,0
18.11.2020 04:00:00 11,8 9,1 - - 13 7 - - SSW 0 0,0
18.11.2020 03:00:00 11,4 9,4 - - 9 5 - - S 0 0,0

tt = Température de l'air
td = dewpoint
tt -20cm = Température de l'air -20cm
tt -100cm = Température de l'air -100cm
ff = Vitesse du vent
fx = gusts
dd = Direction du vent
sd = Ensoleillement
rr = Quantités de précipitations

stations d'obs. à proximité